Time;durP1;ratioP1;P1;durP2;ratioP2;P2;SDS_P1;SDS_P2;PMS_P1;PMS_P2;Temp;Humidity;BMP_temperature;BMP_pressure;BME280_temperature;BME280_humidity;BME280_pressure;Samples;Min_cycle;Max_cycle;Signal;HPM_P1;HPM_P2
2022/03/20 00:00:34;;;;;;;4.28;3.40;;;;;;;;;;7310567;19;140717;-69
2022/03/20 00:03:06;;;;;;;4.75;3.35;;;;;;;;;;7302979;19;141255;-68
2022/03/20 00:05:38;;;;;;;4.88;3.40;;;;;;;;;;7305154;19;140513;-68
2022/03/20 00:08:09;;;;;;;4.90;3.42;;;;;;;;;;7305916;19;140771;-69
2022/03/20 00:10:43;;;;;;;3.50;3.00;;;;;;;;;;7305027;19;140634;-68
2022/03/20 00:13:10;;;;;;;5.55;3.45;;;;;;;;;;7307641;19;140982;-69
2022/03/20 00:15:41;;;;;;;4.43;3.40;;;;;;;;;;7306287;19;140467;-69
2022/03/20 00:18:09;;;;;;;3.90;3.38;;;;;;;;;;7304287;19;140667;-69
2022/03/20 00:20:37;;;;;;;4.07;3.20;;;;;;;;;;7305244;19;141035;-69
2022/03/20 00:23:08;;;;;;;5.15;3.35;;;;;;;;;;7307943;19;141146;-69
2022/03/20 00:25:39;;;;;;;4.60;3.28;;;;;;;;;;7308995;19;140549;-69
2022/03/20 00:28:07;;;;;;;4.50;3.03;;;;;;;;;;7309523;19;140458;-68
2022/03/20 00:30:35;;;;;;;4.18;2.90;;;;;;;;;;7304241;19;140713;-69
2022/03/20 00:33:02;;;;;;;3.47;3.10;;;;;;;;;;7305564;19;141207;-69
2022/03/20 00:35:30;;;;;;;4.10;2.95;;;;;;;;;;7309602;19;140255;-69
2022/03/20 00:38:04;;;;;;;4.40;3.35;;;;;;;;;;7305358;19;140583;-69
2022/03/20 00:40:31;;;;;;;3.58;3.17;;;;;;;;;;7305913;19;140635;-69
2022/03/20 00:42:59;;;;;;;4.45;3.30;;;;;;;;;;7308019;19;141063;-69
2022/03/20 00:45:28;;;;;;;3.45;2.85;;;;;;;;;;7307237;19;140707;-70
2022/03/20 00:47:55;;;;;;;3.75;3.10;;;;;;;;;;7308925;19;140472;-68
2022/03/20 00:50:23;;;;;;;3.70;2.85;;;;;;;;;;7303329;19;140706;-69
2022/03/20 00:52:50;;;;;;;4.28;2.90;;;;;;;;;;7304255;19;141068;-69
2022/03/20 00:55:17;;;;;;;4.82;2.97;;;;;;;;;;7302978;19;140743;-69
2022/03/20 00:57:44;;;;;;;4.53;2.83;;;;;;;;;;7305786;19;140706;-69
2022/03/20 01:00:12;;;;;;;3.03;2.60;;;;;;;;;;7308982;19;140739;-69
2022/03/20 01:02:40;;;;;;;3.25;2.70;;;;;;;;;;7303216;19;141058;-69
2022/03/20 01:05:11;;;;;;;3.00;2.70;;;;;;;;;;7308534;19;140393;-69
2022/03/20 01:07:39;;;;;;;4.75;3.05;;;;;;;;;;7303871;19;140504;-69
2022/03/20 01:10:07;;;;;;;3.10;2.67;;;;;;;;;;7300883;19;140972;-68
2022/03/20 01:12:36;;;;;;;3.58;3.13;;;;;;;;;;7303970;19;140753;-69
2022/03/20 01:15:07;;;;;;;3.50;2.80;;;;;;;;;;7307095;19;140303;-69
2022/03/20 01:17:35;;;;;;;3.58;2.88;;;;;;;;;;7303519;19;141105;-69
2022/03/20 01:20:03;;;;;;;3.72;2.80;;;;;;;;;;7303221;19;141169;-69
2022/03/20 01:22:30;;;;;;;3.90;2.75;;;;;;;;;;7307620;19;141117;-69
2022/03/20 01:24:58;;;;;;;3.85;2.65;;;;;;;;;;7303212;19;141345;-69
2022/03/20 01:27:24;;;;;;;4.25;3.03;;;;;;;;;;7302845;19;140665;-69
2022/03/20 01:29:54;;;;;;;3.15;2.80;;;;;;;;;;7306619;19;140936;-69
2022/03/20 01:32:22;;;;;;;3.00;2.70;;;;;;;;;;7302953;19;143420;-69
2022/03/20 01:34:49;;;;;;;2.90;2.60;;;;;;;;;;7301540;19;140571;-69
2022/03/20 01:37:16;;;;;;;3.25;2.78;;;;;;;;;;7300907;19;140743;-70
2022/03/20 01:39:43;;;;;;;2.65;2.38;;;;;;;;;;7302117;19;141823;-69
2022/03/20 01:42:10;;;;;;;3.03;2.58;;;;;;;;;;7302164;19;142665;-69
2022/03/20 01:44:37;;;;;;;3.25;2.75;;;;;;;;;;7303217;19;140833;-69
2022/03/20 01:47:08;;;;;;;3.60;2.67;;;;;;;;;;7302593;19;140702;-69
2022/03/20 01:49:35;;;;;;;;;;;;;;;;;;7306836;19;141143;-68
2022/03/20 01:52:23;;;;;;;2.92;2.55;;;;;;;;;;7303984;19;140965;-68
2022/03/20 01:54:51;;;;;;;2.75;2.45;;;;;;;;;;7307048;19;140459;-69
2022/03/20 01:57:21;;;;;;;3.50;2.60;;;;;;;;;;7300791;19;140688;-69
2022/03/20 01:59:51;;;;;;;2.90;2.60;;;;;;;;;;7304182;19;141694;-68
2022/03/20 02:02:22;;;;;;;3.05;2.70;;;;;;;;;;7306127;19;141239;-69
2022/03/20 02:04:50;;;;;;;2.95;2.50;;;;;;;;;;7299395;19;140670;-69
2022/03/20 02:07:17;;;;;;;3.30;2.60;;;;;;;;;;7302093;19;140533;-68
2022/03/20 02:09:44;;;;;;;2.97;2.35;;;;;;;;;;7304765;19;140568;-68
2022/03/20 02:12:12;;;;;;;2.63;2.42;;;;;;;;;;7306271;19;141133;-68
2022/03/20 02:14:40;;;;;;;4.03;2.70;;;;;;;;;;7303418;19;140411;-70
2022/03/20 02:17:10;;;;;;;2.83;2.40;;;;;;;;;;7302507;19;140815;-69
2022/03/20 02:19:39;;;;;;;3.35;2.50;;;;;;;;;;7305895;19;141212;-69
2022/03/20 02:22:06;;;;;;;3.30;2.40;;;;;;;;;;7300083;19;141425;-69
2022/03/20 02:24:40;;;;;;;3.08;2.70;;;;;;;;;;7300967;19;140537;-69
2022/03/20 02:27:09;;;;;;;2.75;2.53;;;;;;;;;;7303151;19;140624;-68
2022/03/20 02:29:37;;;;;;;2.90;2.70;;;;;;;;;;7305412;19;140816;-69
2022/03/20 02:32:12;;;;;;;2.47;2.20;;;;;;;;;;7306457;19;140767;-69
2022/03/20 02:34:40;;;;;;;2.88;2.53;;;;;;;;;;7302889;19;140507;-69
2022/03/20 02:37:08;;;;;;;2.78;2.30;;;;;;;;;;7303994;19;140418;-69
2022/03/20 02:39:36;;;;;;;2.70;2.45;;;;;;;;;;7300797;19;140753;-69
2022/03/20 02:42:06;;;;;;;3.05;2.75;;;;;;;;;;7300115;19;142650;-69
2022/03/20 02:44:50;;;;;;;3.08;2.30;;;;;;;;;;7301552;19;140711;-69
2022/03/20 02:47:20;;;;;;;3.15;2.42;;;;;;;;;;7304446;19;140420;-69
2022/03/20 02:49:49;;;;;;;3.10;2.70;;;;;;;;;;7299774;19;142623;-69
2022/03/20 02:52:16;;;;;;;2.63;2.33;;;;;;;;;;7299869;19;141900;-69
2022/03/20 02:54:42;;;;;;;2.75;2.40;;;;;;;;;;7298427;19;140612;-69
2022/03/20 02:57:12;;;;;;;2.60;2.40;;;;;;;;;;7300450;19;141132;-68
2022/03/20 02:59:39;;;;;;;4.00;2.58;;;;;;;;;;7299519;19;140694;-68
2022/03/20 03:02:09;;;;;;;2.70;2.42;;;;;;;;;;7299440;19;141538;-68
2022/03/20 03:04:37;;;;;;;2.70;2.43;;;;;;;;;;7302208;19;140833;-69
2022/03/20 03:07:05;;;;;;;3.25;2.63;;;;;;;;;;7304245;19;140619;-68
2022/03/20 03:12:18;;;;;;;2.78;2.35;;;;;;;;;;7302788;19;140730;-69
2022/03/20 03:17:32;;;;;;;3.05;2.50;;;;;;;;;;7302484;19;140533;-69
2022/03/20 03:20:00;;;;;;;2.40;2.10;;;;;;;;;;7304562;19;140878;-68
2022/03/20 03:22:27;;;;;;;2.65;2.25;;;;;;;;;;7299185;19;141007;-68
2022/03/20 03:24:54;;;;;;;3.13;2.50;;;;;;;;;;7299430;19;140549;-68
2022/03/20 03:27:21;;;;;;;3.63;2.80;;;;;;;;;;7299224;19;140803;-68
2022/03/20 03:29:48;;;;;;;2.55;2.33;;;;;;;;;;7298272;19;141461;-68
2022/03/20 03:32:16;;;;;;;2.80;2.47;;;;;;;;;;7302975;19;141179;-69
2022/03/20 03:37:30;;;;;;;2.97;2.45;;;;;;;;;;7299984;19;140526;-69
2022/03/20 03:39:57;;;;;;;3.08;2.55;;;;;;;;;;7299189;19;141875;-69
2022/03/20 03:42:24;;;;;;;2.53;2.30;;;;;;;;;;7299534;19;141309;-69
2022/03/20 03:44:51;;;;;;;2.35;2.15;;;;;;;;;;7301710;19;140626;-69
2022/03/20 03:47:18;;;;;;;2.92;2.58;;;;;;;;;;7302124;19;140680;-69
2022/03/20 03:49:46;;;;;;;2.90;2.45;;;;;;;;;;7298035;19;140814;-69
2022/03/20 03:52:14;;;;;;;2.33;2.13;;;;;;;;;;7302175;19;141954;-69
2022/03/20 03:54:42;;;;;;;2.78;2.42;;;;;;;;;;7301011;19;140476;-69
2022/03/20 03:57:09;;;;;;;2.75;2.25;;;;;;;;;;7297892;19;140807;-70
2022/03/20 03:59:36;;;;;;;2.60;2.40;;;;;;;;;;7311018;19;140527;-69
2022/03/20 04:02:04;;;;;;;2.42;2.22;;;;;;;;;;7308287;19;140655;-69
2022/03/20 04:04:32;;;;;;;3.55;2.90;;;;;;;;;;7306015;19;140783;-71
2022/03/20 04:06:59;;;;;;;2.78;2.35;;;;;;;;;;7305875;19;140615;-69
2022/03/20 04:09:28;;;;;;;2.53;2.33;;;;;;;;;;7309103;19;140848;-69
2022/03/20 04:11:58;;;;;;;2.50;2.30;;;;;;;;;;7306065;19;141325;-68
2022/03/20 04:14:26;;;;;;;2.97;2.35;;;;;;;;;;7305348;19;141245;-69
2022/03/20 04:16:54;;;;;;;2.67;2.17;;;;;;;;;;7308490;19;140651;-69
2022/03/20 04:19:21;;;;;;;3.08;2.60;;;;;;;;;;7305657;19;141329;-69
2022/03/20 04:21:48;;;;;;;2.42;2.17;;;;;;;;;;7304209;19;141117;-69
2022/03/20 04:24:15;;;;;;;2.78;2.40;;;;;;;;;;7304505;19;141467;-69
2022/03/20 04:26:43;;;;;;;3.05;2.40;;;;;;;;;;7304820;19;140589;-69
2022/03/20 04:29:10;;;;;;;2.42;2.22;;;;;;;;;;7304332;19;140550;-70
2022/03/20 04:31:40;;;;;;;3.08;2.50;;;;;;;;;;7306602;19;141540;-69
2022/03/20 04:34:08;;;;;;;2.70;2.37;;;;;;;;;;7315008;19;140430;-69
2022/03/20 04:36:35;;;;;;;2.33;2.13;;;;;;;;;;7303553;19;140736;-70
2022/03/20 04:39:03;;;;;;;2.63;2.25;;;;;;;;;;7307935;19;140423;-69
2022/03/20 04:41:30;;;;;;;2.70;2.33;;;;;;;;;;7305677;19;140579;-69
2022/03/20 04:44:00;;;;;;;2.83;2.35;;;;;;;;;;7308140;19;140566;-69
2022/03/20 04:46:28;;;;;;;2.40;2.20;;;;;;;;;;7304076;19;140353;-69
2022/03/20 04:59:58;;;;;;;2.40;2.20;;;;;;;;;;7307269;19;140550;-68
2022/03/20 05:02:25;;;;;;;2.50;2.30;;;;;;;;;;7302959;19;142307;-68
2022/03/20 05:04:53;;;;;;;2.70;2.30;;;;;;;;;;7306122;19;140562;-68
2022/03/20 05:07:20;;;;;;;2.63;2.05;;;;;;;;;;7308575;19;140372;-69
2022/03/20 05:15:18;;;;;;;2.45;2.17;;;;;;;;;;7302624;19;140967;-69
2022/03/20 05:17:45;;;;;;;2.45;2.20;;;;;;;;;;7302483;19;140629;-69
2022/03/20 05:20:12;;;;;;;2.92;2.28;;;;;;;;;;7306331;19;140386;-69
2022/03/20 05:22:40;;;;;;;2.47;2.08;;;;;;;;;;7307331;19;141353;-69
2022/03/20 05:25:14;;;;;;;3.33;2.55;;;;;;;;;;7302797;19;140564;-69
2022/03/20 05:27:42;;;;;;;2.65;2.35;;;;;;;;;;7304721;19;140546;-69
2022/03/20 05:30:10;;;;;;;2.53;2.33;;;;;;;;;;7306728;19;140457;-68
2022/03/20 05:32:38;;;;;;;2.40;2.20;;;;;;;;;;7303500;19;141116;-69
2022/03/20 05:35:07;;;;;;;2.35;1.92;;;;;;;;;;7302222;19;140523;-69
2022/03/20 05:37:34;;;;;;;2.55;2.33;;;;;;;;;;7302700;19;140540;-69
2022/03/20 05:40:02;;;;;;;3.03;2.20;;;;;;;;;;7302818;19;140747;-69
2022/03/20 05:42:30;;;;;;;2.30;2.10;;;;;;;;;;7306865;19;141155;-69
2022/03/20 05:45:02;;;;;;;2.93;2.43;;;;;;;;;;7303049;19;140694;-69
2022/03/20 05:47:33;;;;;;;3.05;2.40;;;;;;;;;;7306731;19;140620;-68
2022/03/20 05:50:03;;;;;;;2.58;2.20;;;;;;;;;;7303397;19;140686;-68
2022/03/20 05:52:31;;;;;;;2.78;2.22;;;;;;;;;;7302453;19;142075;-69
2022/03/20 05:54:58;;;;;;;2.40;2.20;;;;;;;;;;7302915;19;140839;-69
2022/03/20 06:00:17;;;;;;;2.65;2.22;;;;;;;;;;7301798;19;140931;-69
2022/03/20 06:02:44;;;;;;;3.05;2.47;;;;;;;;;;7302050;19;141896;-69
2022/03/20 06:05:12;;;;;;;2.30;2.10;;;;;;;;;;7305336;19;140499;-69
2022/03/20 06:07:41;;;;;;;2.40;2.20;;;;;;;;;;7306463;19;140636;-68
2022/03/20 06:10:12;;;;;;;2.63;2.20;;;;;;;;;;7297979;19;140743;-69
2022/03/20 06:12:39;;;;;;;;;;;;;;;;;;7303164;19;141517;-69
2022/03/20 06:15:09;;;;;;;2.60;2.40;;;;;;;;;;7302097;19;140538;-69
2022/03/20 06:17:45;;;;;;;2.58;2.25;;;;;;;;;;7301727;19;140598;-69
2022/03/20 06:20:15;;;;;;;3.10;2.17;;;;;;;;;;7299345;19;141075;-69
2022/03/20 06:22:44;;;;;;;2.38;2.17;;;;;;;;;;7302563;19;141278;-68
2022/03/20 06:25:15;;;;;;;2.40;2.20;;;;;;;;;;7305669;19;140480;-70
2022/03/20 06:27:47;;;;;;;2.60;2.08;;;;;;;;;;7299153;19;140870;-69
2022/03/20 06:30:14;;;;;;;2.42;2.22;;;;;;;;;;7300758;19;140563;-69
2022/03/20 06:32:45;;;;;;;2.63;2.17;;;;;;;;;;7302728;19;140960;-69
2022/03/20 06:35:13;;;;;;;2.05;1.80;;;;;;;;;;7306083;19;140439;-69
2022/03/20 06:37:42;;;;;;;2.83;2.33;;;;;;;;;;7298907;19;140566;-69
2022/03/20 06:40:10;;;;;;;2.20;2.00;;;;;;;;;;7301117;19;141326;-71
2022/03/20 06:42:37;;;;;;;2.80;2.20;;;;;;;;;;7300148;19;140669;-72
2022/03/20 06:45:05;;;;;;;2.40;2.13;;;;;;;;;;7301278;19;141100;-72
2022/03/20 06:47:32;;;;;;;2.83;2.25;;;;;;;;;;7301212;19;140737;-71
2022/03/20 06:50:00;;;;;;;2.45;2.13;;;;;;;;;;7302508;19;141062;-72
2022/03/20 06:52:28;;;;;;;2.90;2.47;;;;;;;;;;7305010;19;141320;-72
2022/03/20 06:54:57;;;;;;;2.90;2.28;;;;;;;;;;7299003;19;140505;-72
2022/03/20 06:57:25;;;;;;;2.85;2.25;;;;;;;;;;7302854;19;140506;-72
2022/03/20 06:59:55;;;;;;;3.05;2.35;;;;;;;;;;7300110;19;140589;-71
2022/03/20 07:02:23;;;;;;;4.57;3.53;;;;;;;;;;7304303;19;142013;-71
2022/03/20 07:04:51;;;;;;;5.93;3.35;;;;;;;;;;7299198;19;140744;-71
2022/03/20 07:07:19;;;;;;;9.65;4.38;;;;;;;;;;7298304;19;140779;-71
2022/03/20 07:09:45;;;;;;;9.23;3.97;;;;;;;;;;7302456;19;141068;-70
2022/03/20 07:12:13;;;;;;;6.57;3.88;;;;;;;;;;7298696;19;142877;-70
2022/03/20 07:14:41;;;;;;;10.45;4.10;;;;;;;;;;7300447;19;140611;-69
2022/03/20 07:17:09;;;;;;;10.95;4.72;;;;;;;;;;7298257;19;140582;-69
2022/03/20 07:19:37;;;;;;;10.40;4.30;;;;;;;;;;7299483;19;141343;-69
2022/03/20 07:22:05;;;;;;;9.48;4.95;;;;;;;;;;7299044;19;141865;-69
2022/03/20 07:24:35;;;;;;;9.57;4.43;;;;;;;;;;7299710;19;140779;-70
2022/03/20 07:29:51;;;;;;;9.07;4.25;;;;;;;;;;7302110;19;140691;-70
2022/03/20 07:32:19;;;;;;;;;;;;;;;;;;7300538;19;140801;-71
2022/03/20 07:34:46;;;;;;;7.50;3.70;;;;;;;;;;7306842;19;140538;-71
2022/03/20 07:37:17;;;;;;;7.35;3.72;;;;;;;;;;7306139;19;140682;-71
2022/03/20 07:39:43;;;;;;;;;;;;;;;;;;7307318;19;140747;-71
2022/03/20 07:42:12;;;;;;;6.20;3.95;;;;;;;;;;7310841;19;141121;-70
2022/03/20 07:44:41;;;;;;;4.55;3.92;;;;;;;;;;7306888;19;140668;-71
2022/03/20 07:47:11;;;;;;;;;;;;;;;;;;7310509;19;140758;-71
2022/03/20 07:49:39;;;;;;;6.15;3.90;;;;;;;;;;7305298;19;140828;-70
2022/03/20 07:52:06;;;;;;;8.55;4.07;;;;;;;;;;7307981;19;140907;-70
2022/03/20 07:54:36;;;;;;;5.80;4.03;;;;;;;;;;7312755;19;140393;-70
2022/03/20 07:57:04;;;;;;;13.35;4.63;;;;;;;;;;7304424;19;141115;-71
2022/03/20 07:59:31;;;;;;;9.68;4.47;;;;;;;;;;7305751;19;141767;-71
2022/03/20 08:01:58;;;;;;;8.85;4.15;;;;;;;;;;7304417;19;142818;-68
2022/03/20 08:04:25;;;;;;;7.57;4.20;;;;;;;;;;7303904;19;141013;-69
2022/03/20 08:06:52;;;;;;;9.00;4.18;;;;;;;;;;7304432;19;140688;-71
2022/03/20 08:09:29;;;;;;;8.25;3.72;;;;;;;;;;7307516;19;141154;-74
2022/03/20 08:11:56;;;;;;;9.35;4.65;;;;;;;;;;7305403;19;141348;-74
2022/03/20 08:14:27;;;;;;;14.97;4.37;;;;;;;;;;7305450;19;140475;-74
2022/03/20 08:16:55;;;;;;;16.15;4.28;;;;;;;;;;7309856;19;140668;-74
2022/03/20 08:19:24;;;;;;;15.68;4.00;;;;;;;;;;7306749;19;140743;-74
2022/03/20 08:21:51;;;;;;;8.57;3.88;;;;;;;;;;7304113;19;141888;-74
2022/03/20 08:24:19;;;;;;;6.10;3.50;;;;;;;;;;7305015;19;141175;-74
2022/03/20 08:26:46;;;;;;;7.55;4.13;;;;;;;;;;7304715;19;140672;-74
2022/03/20 08:29:14;;;;;;;6.80;3.83;;;;;;;;;;7303537;19;140592;-73
2022/03/20 08:31:45;;;;;;;6.57;3.97;;;;;;;;;;7303762;19;141840;-73
2022/03/20 08:34:14;;;;;;;7.25;4.05;;;;;;;;;;7304722;19;140476;-73
2022/03/20 08:36:42;;;;;;;7.30;3.97;;;;;;;;;;7304017;19;140593;-74
2022/03/20 08:39:10;;;;;;;5.38;3.50;;;;;;;;;;7303314;19;141172;-73
2022/03/20 08:41:37;;;;;;;7.15;3.70;;;;;;;;;;7306453;19;141128;-74
2022/03/20 08:44:17;;;;;;;6.65;3.88;;;;;;;;;;7302616;19;140650;-72
2022/03/20 08:46:44;;;;;;;4.93;3.70;;;;;;;;;;7307096;19;140748;-73
2022/03/20 08:49:13;;;;;;;5.55;3.70;;;;;;;;;;7308123;19;140645;-73
2022/03/20 08:51:40;;;;;;;6.70;3.83;;;;;;;;;;7301836;19;140793;-73
2022/03/20 08:54:09;;;;;;;5.50;3.60;;;;;;;;;;7303542;19;140750;-73
2022/03/20 08:57:06;;;;;;;5.75;3.47;;;;;;;;;;7302203;19;140758;-72
2022/03/20 08:59:33;;;;;;;5.75;3.20;;;;;;;;;;7301865;19;140575;-71
2022/03/20 09:02:00;;;;;;;6.70;3.60;;;;;;;;;;7303778;19;141168;-70
2022/03/20 09:04:28;;;;;;;5.65;3.38;;;;;;;;;;7304837;19;140578;-70
2022/03/20 09:07:21;;;;;;;6.53;3.20;;;;;;;;;;7307744;19;140639;-72
2022/03/20 09:09:51;;;;;;;5.53;3.25;;;;;;;;;;7301225;19;141280;-72
2022/03/20 09:12:18;;;;;;;4.75;3.45;;;;;;;;;;7302404;19;142302;-72
2022/03/20 09:15:35;;;;;;;6.75;3.50;;;;;;;;;;7300279;19;140577;-72
2022/03/20 09:20:49;;;;;;;4.82;3.22;;;;;;;;;;7303471;19;141353;-72
2022/03/20 09:23:19;;;;;;;3.93;2.93;;;;;;;;;;7301135;19;142901;-72
2022/03/20 09:25:46;;;;;;;3.65;3.00;;;;;;;;;;7305570;19;140472;-73
2022/03/20 09:28:15;;;;;;;4.90;3.10;;;;;;;;;;7301895;19;141097;-72
2022/03/20 09:31:00;;;;;;;3.65;3.08;;;;;;;;;;7300980;19;141265;-71
2022/03/20 09:33:28;;;;;;;5.95;3.63;;;;;;;;;;7303286;19;140635;-72
2022/03/20 09:35:55;;;;;;;5.30;3.03;;;;;;;;;;7301844;19;140838;-72
2022/03/20 09:38:37;;;;;;;4.38;3.10;;;;;;;;;;7301075;19;140627;-74
2022/03/20 09:41:30;;;;;;;5.18;3.00;;;;;;;;;;7305611;19;140413;-72
2022/03/20 09:47:39;;;;;;;4.13;2.92;;;;;;;;;;7305223;19;140715;-73
2022/03/20 09:50:37;;;;;;;5.78;3.05;;;;;;;;;;7298122;19;140561;-75
2022/03/20 09:53:04;;;;;;;6.65;3.17;;;;;;;;;;7299741;19;142023;-74
2022/03/20 09:55:32;;;;;;;4.15;3.15;;;;;;;;;;7299905;19;140999;-73
2022/03/20 09:57:59;;;;;;;4.40;2.90;;;;;;;;;;7299354;19;141765;-74
2022/03/20 10:00:26;;;;;;;4.55;2.67;;;;;;;;;;7299718;19;140640;-74
2022/03/20 10:02:54;;;;;;;3.35;2.97;;;;;;;;;;7300055;19;140933;-73
2022/03/20 10:05:37;;;;;;;4.50;3.10;;;;;;;;;;7307038;19;141428;-74
2022/03/20 10:08:19;;;;;;;5.10;3.10;;;;;;;;;;7299788;19;140659;-73
2022/03/20 10:10:47;;;;;;;3.60;2.90;;;;;;;;;;7300032;19;141227;-72
2022/03/20 10:13:26;;;;;;;4.03;2.83;;;;;;;;;;7298896;19;142059;-72
2022/03/20 10:15:53;;;;;;;3.22;2.92;;;;;;;;;;7298625;19;140945;-73
2022/03/20 10:18:28;;;;;;;4.03;2.88;;;;;;;;;;7300809;19;141336;-73
2022/03/20 10:21:08;;;;;;;4.38;3.17;;;;;;;;;;7299927;19;141282;-74
2022/03/20 10:27:02;;;;;;;3.28;2.83;;;;;;;;;;7302910;19;141086;-74
2022/03/20 10:29:30;;;;;;;3.58;2.70;;;;;;;;;;7298977;19;141093;-74
2022/03/20 10:32:05;;;;;;;3.17;2.60;;;;;;;;;;7304557;19;140848;-72
2022/03/20 10:35:21;;;;;;;3.20;2.60;;;;;;;;;;7300401;19;141257;-72
2022/03/20 10:37:55;;;;;;;3.60;3.00;;;;;;;;;;7296537;19;141200;-71
2022/03/20 10:40:26;;;;;;;3.78;2.92;;;;;;;;;;7298147;19;141540;-73
2022/03/20 10:42:53;;;;;;;;;;;;;;;;;;7301153;19;140761;-72
2022/03/20 10:45:21;;;;;;;2.90;2.60;;;;;;;;;;7312159;19;140526;-72
2022/03/20 10:47:59;;;;;;;4.20;2.83;;;;;;;;;;7313772;19;141543;-72
2022/03/20 10:50:27;;;;;;;3.00;2.63;;;;;;;;;;7319407;19;140327;-72
2022/03/20 10:56:21;;;;;;;2.65;2.45;;;;;;;;;;7283986;19;143462;-73
2022/03/20 10:58:50;;;;;;;3.85;2.70;;;;;;;;;;7310265;19;141186;-73
2022/03/20 11:02:05;;;;;;;3.05;2.75;;;;;;;;;;7311797;19;140422;-72
2022/03/20 11:08:08;;;;;;;3.78;2.60;;;;;;;;;;7314938;19;141143;-72
2022/03/20 11:10:39;;;;;;;3.78;2.88;;;;;;;;;;7313153;19;140735;-73
2022/03/20 11:13:06;;;;;;;3.93;2.70;;;;;;;;;;7312921;19;140540;-74
2022/03/20 11:22:06;;;;;;;3.20;2.60;;;;;;;;;;7327231;19;140466;-74
2022/03/20 11:24:37;;;;;;;3.17;2.70;;;;;;;;;;7331528;19;140253;-74
2022/03/20 11:27:30;;;;;;;3.15;2.80;;;;;;;;;;7320723;19;140508;-73
2022/03/20 11:30:01;;;;;;;3.28;2.75;;;;;;;;;;7314096;19;140816;-73
2022/03/20 11:32:34;;;;;;;3.63;2.17;;;;;;;;;;7317380;19;141310;-72
2022/03/20 11:35:03;;;;;;;3.17;2.50;;;;;;;;;;7313569;19;140595;-73
2022/03/20 11:37:43;;;;;;;3.50;2.80;;;;;;;;;;7316068;19;141281;-73
2022/03/20 11:40:36;;;;;;;2.77;2.53;;;;;;;;;;7309751;19;140894;-73
2022/03/20 11:47:01;;;;;;;2.53;2.33;;;;;;;;;;7308128;19;140629;-74
2022/03/20 11:53:40;;;;;;;2.65;2.13;;;;;;;;;;7303120;19;141260;-74
2022/03/20 11:59:40;;;;;;;3.53;2.50;;;;;;;;;;7306435;19;140562;-73
2022/03/20 12:05:28;;;;;;;3.00;2.50;;;;;;;;;;7305636;19;141942;-73
2022/03/20 12:11:40;;;;;;;2.63;2.13;;;;;;;;;;7301566;19;140695;-73
2022/03/20 12:18:05;;;;;;;3.10;2.50;;;;;;;;;;7302854;19;141045;-71
2022/03/20 12:21:05;;;;;;;3.08;2.60;;;;;;;;;;7303985;19;142078;-71
2022/03/20 12:23:38;;;;;;;2.50;2.30;;;;;;;;;;7306139;19;141197;-71
2022/03/20 12:26:26;;;;;;;2.70;2.25;;;;;;;;;;7307587;19;140462;-71
2022/03/20 12:29:16;;;;;;;2.85;2.53;;;;;;;;;;7302851;19;141278;-71
2022/03/20 12:31:55;;;;;;;4.25;2.60;;;;;;;;;;7303304;19;140885;-71
2022/03/20 12:34:24;;;;;;;2.55;2.35;;;;;;;;;;7305574;19;140897;-69
2022/03/20 12:36:52;;;;;;;3.42;2.60;;;;;;;;;;7305247;19;140769;-69
2022/03/20 12:39:37;;;;;;;2.40;2.20;;;;;;;;;;7305491;19;140959;-72
2022/03/20 12:42:14;;;;;;;4.68;2.70;;;;;;;;;;7309323;19;141353;-71
2022/03/20 12:45:00;;;;;;;4.20;2.70;;;;;;;;;;7303435;19;140558;-70
2022/03/20 12:47:28;;;;;;;4.90;2.90;;;;;;;;;;7307637;19;140656;-71
2022/03/20 12:50:10;;;;;;;3.92;2.90;;;;;;;;;;7299533;19;141259;-72
2022/03/20 12:52:38;;;;;;;5.63;2.88;;;;;;;;;;7300886;19;141444;-72
2022/03/20 12:55:09;;;;;;;5.25;2.65;;;;;;;;;;7301173;19;141351;-69
2022/03/20 12:57:43;;;;;;;10.55;6.05;;;;;;;;;;7299494;19;140762;-69
2022/03/20 13:00:16;;;;;;;17.90;6.85;;;;;;;;;;7298965;19;141384;-71
2022/03/20 13:03:11;;;;;;;16.52;7.28;;;;;;;;;;7300248;19;140840;-71
2022/03/20 13:05:47;;;;;;;12.00;7.68;;;;;;;;;;7303176;19;140812;-70
2022/03/20 13:08:24;;;;;;;12.13;7.63;;;;;;;;;;7300517;19;141040;-69
2022/03/20 13:10:53;;;;;;;18.30;10.35;;;;;;;;;;7304878;19;141397;-70
2022/03/20 13:17:02;;;;;;;36.15;26.95;;;;;;;;;;7301393;19;141278;-70
2022/03/20 13:19:33;;;;;;;48.50;39.45;;;;;;;;;;7301666;19;140886;-71
2022/03/20 13:22:05;;;;;;;86.82;69.90;;;;;;;;;;7308209;19;140422;-70
2022/03/20 13:24:36;;;;;;;87.25;73.15;;;;;;;;;;7299548;19;141766;-69
2022/03/20 13:27:04;;;;;;;82.20;68.15;;;;;;;;;;7303378;19;140606;-71
2022/03/20 13:29:33;;;;;;;94.07;77.95;;;;;;;;;;7302617;19;140948;-72
2022/03/20 13:32:01;;;;;;;94.53;78.90;;;;;;;;;;7300727;19;140823;-71
2022/03/20 13:34:30;;;;;;;101.03;85.50;;;;;;;;;;7305183;19;141401;-71
2022/03/20 13:37:07;;;;;;;97.32;82.72;;;;;;;;;;7307050;19;140506;-72
2022/03/20 13:39:37;;;;;;;102.68;84.50;;;;;;;;;;7298204;19;142803;-75
2022/03/20 13:42:15;;;;;;;98.25;85.68;;;;;;;;;;7303555;19;141511;-72
2022/03/20 13:45:02;;;;;;;100.10;85.03;;;;;;;;;;7299019;19;141227;-72
2022/03/20 13:47:57;;;;;;;101.93;87.78;;;;;;;;;;7302409;19;140534;-71
2022/03/20 13:54:11;;;;;;;100.30;87.65;;;;;;;;;;7299117;19;140893;-71
2022/03/20 13:56:39;;;;;;;90.53;78.40;;;;;;;;;;7298796;19;141205;-72
2022/03/20 13:59:16;;;;;;;92.20;79.90;;;;;;;;;;7299210;19;140779;-72
2022/03/20 14:01:54;;;;;;;97.65;81.85;;;;;;;;;;7290114;19;140346;-73
2022/03/20 14:04:37;;;;;;;94.15;80.88;;;;;;;;;;7300225;19;140718;-72
2022/03/20 14:07:17;;;;;;;89.90;80.20;;;;;;;;;;7300255;19;142246;-72
2022/03/20 14:09:48;;;;;;;88.05;75.10;;;;;;;;;;7304715;19;140758;-72
2022/03/20 14:12:35;;;;;;;86.88;77.07;;;;;;;;;;7300997;19;140543;-73
2022/03/20 14:15:10;;;;;;;88.05;78.53;;;;;;;;;;7299509;19;140662;-71
2022/03/20 14:17:43;;;;;;;81.57;72.65;;;;;;;;;;7302226;19;141722;-72
2022/03/20 14:20:24;;;;;;;83.45;73.70;;;;;;;;;;7302625;19;141062;-72
2022/03/20 14:23:12;;;;;;;84.28;75.05;;;;;;;;;;7302777;19;140609;-71
2022/03/20 14:25:44;;;;;;;83.15;74.22;;;;;;;;;;7301583;19;140478;-72
2022/03/20 14:28:11;;;;;;;;;;;;;;;;;;7302319;19;141519;-71
2022/03/20 14:39:28;;;;;;;74.47;66.47;;;;;;;;;;7298491;19;140839;-72
2022/03/20 14:41:57;;;;;;;75.78;67.53;;;;;;;;;;7296387;19;140786;-70
2022/03/20 14:44:53;;;;;;;74.15;66.13;;;;;;;;;;7299926;19;141412;-72
2022/03/20 14:47:21;;;;;;;69.07;61.53;;;;;;;;;;7298987;19;141248;-71
2022/03/20 14:49:51;;;;;;;69.68;62.00;;;;;;;;;;7298876;19;140760;-71
2022/03/20 14:52:20;;;;;;;63.15;55.47;;;;;;;;;;7302394;19;140558;-74
2022/03/20 14:54:52;;;;;;;61.28;52.65;;;;;;;;;;7297262;19;140587;-74
2022/03/20 14:57:20;;;;;;;57.55;51.30;;;;;;;;;;7296841;19;140755;-73
2022/03/20 15:00:18;;;;;;;55.08;49.20;;;;;;;;;;7244616;19;143197;-75
2022/03/20 15:02:49;;;;;;;57.28;50.97;;;;;;;;;;7301219;19;140474;-73
2022/03/20 15:05:16;;;;;;;54.95;49.00;;;;;;;;;;7300749;19;140514;-73
2022/03/20 15:11:23;;;;;;;54.20;48.35;;;;;;;;;;7300495;19;141383;-75
2022/03/20 15:13:17;;;;;;;49.75;43.78;;;;;;;;;;7305165;19;140429;-74
2022/03/20 15:15:44;;;;;;;47.60;42.53;;;;;;;;;;7298551;19;141761;-73
2022/03/20 15:18:11;;;;;;;48.28;43.03;;;;;;;;;;7299342;19;140901;-74
2022/03/20 15:20:38;;;;;;;47.35;42.35;;;;;;;;;;7303127;19;142740;-73
2022/03/20 15:23:06;;;;;;;45.28;40.25;;;;;;;;;;7302229;19;140604;-74
2022/03/20 15:25:33;;;;;;;43.47;38.78;;;;;;;;;;7303094;19;140515;-76
2022/03/20 15:28:01;;;;;;;42.20;37.83;;;;;;;;;;7301234;19;140711;-74
2022/03/20 15:30:27;;;;;;;40.55;36.33;;;;;;;;;;7299686;19;142563;-74
2022/03/20 15:32:54;;;;;;;39.33;34.97;;;;;;;;;;7299595;19;141510;-75
2022/03/20 15:35:22;;;;;;;40.03;35.75;;;;;;;;;;7301426;19;140793;-75
2022/03/20 15:37:49;;;;;;;38.35;34.22;;;;;;;;;;7304028;19;140741;-75
2022/03/20 15:40:17;;;;;;;38.83;33.35;;;;;;;;;;7299705;19;140645;-74
2022/03/20 15:42:49;;;;;;;36.42;32.53;;;;;;;;;;7304041;19;140434;-74
2022/03/20 15:45:16;;;;;;;35.38;31.55;;;;;;;;;;7298641;19;141755;-74
2022/03/20 15:47:44;;;;;;;35.08;31.27;;;;;;;;;;7304507;19;140708;-73
2022/03/20 15:50:13;;;;;;;33.13;29.52;;;;;;;;;;7298836;19;141237;-74
2022/03/20 15:52:40;;;;;;;32.15;28.60;;;;;;;;;;7298828;19;140630;-74
2022/03/20 15:55:07;;;;;;;30.02;26.95;;;;;;;;;;7303459;19;140507;-73
2022/03/20 15:57:49;;;;;;;30.55;26.63;;;;;;;;;;7304637;19;141094;-73
2022/03/20 16:00:16;;;;;;;30.13;26.00;;;;;;;;;;7303309;19;141995;-71
2022/03/20 16:02:43;;;;;;;27.23;23.52;;;;;;;;;;7305108;19;141023;-71
2022/03/20 16:05:28;;;;;;;33.15;23.80;;;;;;;;;;7310002;19;140686;-72
2022/03/20 16:07:55;;;;;;;25.70;21.33;;;;;;;;;;7304824;19;140711;-72
2022/03/20 16:10:23;;;;;;;25.35;19.90;;;;;;;;;;7309397;19;140635;-73
2022/03/20 16:12:51;;;;;;;24.02;19.25;;;;;;;;;;7306687;19;140375;-73
2022/03/20 16:15:19;;;;;;;23.17;18.75;;;;;;;;;;7303418;19;140832;-73
2022/03/20 16:17:49;;;;;;;27.88;18.98;;;;;;;;;;7304548;19;141080;-73
2022/03/20 16:20:16;;;;;;;20.30;18.10;;;;;;;;;;7305651;19;141376;-73
2022/03/20 16:28:32;;;;;;;19.42;16.33;;;;;;;;;;7305758;19;140619;-73